createdAt,value
2018-06-15T00:02:26.957Z,16.70
2018-06-15T00:07:22.781Z,16.30
2018-06-15T00:09:50.579Z,16.80
2018-06-15T00:12:20.622Z,16.70
2018-06-15T00:14:48.683Z,16.30
2018-06-15T00:17:16.420Z,16.70
2018-06-15T00:19:44.164Z,16.90
2018-06-15T00:22:11.917Z,16.90
2018-06-15T00:24:39.827Z,16.90
2018-06-15T00:27:08.052Z,16.90
2018-06-15T00:29:35.900Z,16.70
2018-06-15T00:32:03.736Z,16.90
2018-06-15T00:34:31.461Z,16.70
2018-06-15T00:36:59.196Z,16.80
2018-06-15T00:39:27.035Z,16.50
2018-06-15T00:41:55.164Z,16.40
2018-06-15T00:44:22.892Z,16.20
2018-06-15T00:46:50.972Z,16.40
2018-06-15T00:49:18.819Z,16.40
2018-06-15T00:51:46.661Z,16.40
2018-06-15T00:54:14.692Z,16.30
2018-06-15T00:56:53.980Z,16.40
2018-06-15T00:59:21.731Z,16.70
2018-06-15T01:01:49.505Z,16.80
2018-06-15T01:04:17.376Z,16.50
2018-06-15T01:06:45.191Z,16.80
2018-06-15T01:09:12.892Z,16.80
2018-06-15T01:11:40.990Z,16.90
2018-06-15T01:14:09.076Z,16.80
2018-06-15T01:16:36.939Z,16.70
2018-06-15T01:19:04.723Z,16.80
2018-06-15T01:21:32.408Z,16.70
2018-06-15T01:24:06.760Z,16.80
2018-06-15T01:26:34.495Z,16.90
2018-06-15T01:29:02.262Z,16.90
2018-06-15T01:31:29.991Z,16.90
2018-06-15T01:33:58.359Z,16.90
2018-06-15T01:36:26.087Z,16.80
2018-06-15T01:38:53.777Z,16.90
2018-06-15T01:41:21.522Z,16.90
2018-06-15T01:43:49.235Z,16.50
2018-06-15T01:46:16.959Z,16.70
2018-06-15T01:48:44.679Z,16.80
2018-06-15T01:51:12.397Z,16.80
2018-06-15T01:53:40.092Z,16.70
2018-06-15T01:56:07.839Z,16.80
2018-06-15T01:58:35.552Z,16.90
2018-06-15T02:01:03.266Z,16.90
2018-06-15T02:03:31.000Z,16.80
2018-06-15T02:05:58.820Z,16.70
2018-06-15T02:08:26.581Z,16.60
2018-06-15T02:10:54.289Z,16.70
2018-06-15T02:13:22.267Z,16.80
2018-06-15T02:15:49.977Z,16.40
2018-06-15T02:18:17.713Z,16.70
2018-06-15T02:20:45.434Z,16.90
2018-06-15T02:23:13.167Z,16.80
2018-06-15T02:25:40.872Z,16.80
2018-06-15T02:28:08.608Z,16.80
2018-06-15T02:30:36.320Z,16.90
2018-06-15T02:33:04.124Z,16.90
2018-06-15T02:35:31.824Z,16.80
2018-06-15T02:37:59.558Z,16.80
2018-06-15T02:40:27.250Z,16.60
2018-06-15T02:42:54.983Z,16.70
2018-06-15T02:45:22.734Z,16.70
2018-06-15T02:47:50.437Z,16.90
2018-06-15T02:52:45.735Z,16.80
2018-06-15T02:55:14.424Z,17.10
2018-06-15T02:57:42.156Z,16.90
2018-06-15T03:00:09.864Z,16.80
2018-06-15T03:02:37.599Z,16.90
2018-06-15T03:05:05.381Z,16.90
2018-06-15T03:07:33.148Z,16.90
2018-06-15T03:10:00.871Z,16.90
2018-06-15T03:12:28.593Z,16.80
2018-06-15T03:14:56.300Z,16.70
2018-06-15T03:17:24.034Z,16.80
2018-06-15T03:19:51.759Z,16.80
2018-06-15T03:22:19.480Z,16.90
2018-06-15T03:24:47.199Z,17.00
2018-06-15T03:29:42.514Z,16.90
2018-06-15T03:32:10.241Z,16.90
2018-06-15T03:34:37.937Z,16.90
2018-06-15T03:37:05.669Z,16.60
2018-06-15T03:39:33.371Z,16.60
2018-06-15T03:42:01.104Z,16.80
2018-06-15T03:44:28.829Z,16.80
2018-06-15T03:46:56.568Z,17.00
2018-06-15T03:49:24.400Z,16.70
2018-06-15T03:51:52.117Z,17.00
2018-06-15T03:54:19.816Z,16.90
2018-06-15T03:56:47.536Z,16.90
2018-06-15T03:59:15.245Z,16.80
2018-06-15T04:01:42.979Z,16.90
2018-06-15T04:04:10.673Z,16.70
2018-06-15T04:06:38.445Z,16.90
2018-06-15T04:09:07.802Z,16.80
2018-06-15T04:11:35.647Z,16.90
2018-06-15T04:14:03.372Z,16.90
2018-06-15T04:16:31.121Z,17.00
2018-06-15T04:18:58.828Z,17.40
2018-06-15T04:21:26.584Z,16.90
2018-06-15T04:23:54.334Z,17.10
2018-06-15T04:26:22.036Z,17.40
2018-06-15T04:28:49.767Z,17.30
2018-06-15T04:31:17.479Z,16.90
2018-06-15T04:33:45.203Z,16.90
2018-06-15T04:36:12.889Z,17.00
2018-06-15T04:38:40.612Z,17.40
2018-06-15T04:41:08.317Z,17.00
2018-06-15T04:43:36.091Z,17.00
2018-06-15T04:48:31.432Z,17.60
2018-06-15T04:50:59.116Z,17.50
2018-06-15T04:53:26.832Z,17.40
2018-06-15T04:55:54.560Z,17.60
2018-06-15T04:58:22.283Z,17.70
2018-06-15T05:00:50.016Z,17.60
2018-06-15T05:03:17.764Z,17.70
2018-06-15T05:05:45.665Z,17.80
2018-06-15T05:10:40.989Z,17.70
2018-06-15T05:15:36.315Z,18.00
2018-06-15T05:18:04.116Z,18.30
2018-06-15T05:20:31.817Z,17.80
2018-06-15T05:22:59.528Z,18.30
2018-06-15T05:25:27.304Z,18.50
2018-06-15T05:27:55.068Z,18.40
2018-06-15T05:30:22.795Z,18.50
2018-06-15T05:32:50.574Z,18.50
2018-06-15T05:35:18.316Z,18.70
2018-06-15T05:37:46.095Z,18.50
2018-06-15T05:42:41.434Z,18.20
2018-06-15T05:45:09.220Z,18.40
2018-06-15T05:47:36.954Z,18.30
2018-06-15T05:50:04.656Z,18.20
2018-06-15T05:52:32.412Z,17.90
2018-06-15T05:55:00.124Z,18.10
2018-06-15T05:57:27.879Z,18.30
2018-06-15T05:59:55.607Z,18.50
2018-06-15T06:02:23.336Z,18.60
2018-06-15T06:04:51.032Z,18.80
2018-06-15T06:07:18.809Z,18.90
2018-06-15T06:09:46.503Z,18.70
2018-06-15T06:12:14.247Z,18.80
2018-06-15T06:14:41.952Z,18.80
2018-06-15T06:19:37.286Z,18.80
2018-06-15T06:22:05.060Z,19.20
2018-06-15T06:24:32.860Z,19.20
2018-06-15T06:27:00.586Z,18.90
2018-06-15T06:29:28.347Z,19.10
2018-06-15T06:31:56.111Z,19.40
2018-06-15T06:34:23.839Z,19.30
2018-06-15T06:36:51.543Z,19.50
2018-06-15T06:39:19.267Z,19.70
2018-06-15T06:41:46.983Z,20.00
2018-06-15T06:44:14.707Z,19.90
2018-06-15T06:49:10.044Z,20.10
2018-06-15T06:54:05.365Z,19.70
2018-06-15T06:59:00.643Z,19.60
2018-06-15T07:01:28.367Z,20.10
2018-06-15T07:03:56.095Z,20.30
2018-06-15T07:06:23.837Z,20.20
2018-06-15T07:08:51.572Z,20.40
2018-06-15T07:11:19.391Z,19.70
2018-06-15T07:13:47.155Z,20.10
2018-06-15T07:16:14.843Z,20.00
2018-06-15T07:18:42.576Z,20.00
2018-06-15T07:21:10.304Z,20.10
2018-06-15T07:23:38.087Z,20.60
2018-06-15T07:26:05.765Z,20.40
2018-06-15T07:28:33.505Z,20.20
2018-06-15T07:31:01.204Z,20.00
2018-06-15T07:35:56.556Z,20.10
2018-06-15T07:38:24.292Z,20.20
2018-06-15T07:40:52.008Z,20.40
2018-06-15T07:43:19.759Z,20.40
2018-06-15T07:45:47.503Z,20.40
2018-06-15T07:50:42.820Z,21.00
2018-06-15T07:55:38.188Z,20.90
2018-06-15T07:58:05.923Z,20.90
2018-06-15T08:00:33.619Z,20.80
2018-06-15T08:03:01.359Z,21.10
2018-06-15T08:05:29.081Z,20.80
2018-06-15T08:07:56.849Z,20.70
2018-06-15T08:10:24.641Z,20.90
2018-06-15T08:12:52.484Z,21.30
2018-06-15T08:17:47.888Z,21.80
2018-06-15T08:20:15.674Z,21.90
2018-06-15T08:22:43.508Z,22.90
2018-06-15T08:25:11.291Z,22.60
2018-06-15T08:27:39.092Z,22.30
2018-06-15T08:30:06.913Z,22.00
2018-06-15T08:32:34.703Z,22.10
2018-06-15T08:35:02.503Z,22.90
2018-06-15T08:37:30.328Z,23.30
2018-06-15T08:42:25.943Z,22.10
2018-06-15T08:44:53.821Z,22.60
2018-06-15T08:47:21.596Z,22.50
2018-06-15T08:49:49.464Z,22.00
2018-06-15T08:54:45.007Z,21.90
2018-06-15T08:57:12.864Z,21.80
2018-06-15T08:59:40.631Z,21.60
2018-06-15T09:02:08.490Z,21.80
2018-06-15T09:04:36.284Z,21.70
2018-06-15T09:07:04.271Z,21.30
2018-06-15T09:09:32.036Z,21.60
2018-06-15T09:11:59.814Z,21.50
2018-06-15T09:14:27.624Z,21.60
2018-06-15T09:16:55.434Z,21.80
2018-06-15T09:19:23.220Z,21.80
2018-06-15T09:21:51.068Z,21.40
2018-06-15T09:24:18.884Z,21.00
2018-06-15T09:26:46.647Z,20.90
2018-06-15T09:31:44.229Z,21.00
2018-06-15T09:36:39.948Z,22.30
2018-06-15T09:39:09.210Z,24.80
2018-06-15T09:41:36.997Z,25.70
2018-06-15T09:44:04.800Z,26.40
2018-06-15T09:49:00.242Z,26.40
2018-06-15T09:51:28.043Z,27.10
2018-06-15T09:53:56.032Z,27.90
2018-06-15T09:56:23.786Z,27.70
2018-06-15T09:58:53.279Z,27.10
2018-06-15T10:01:21.285Z,24.90
2018-06-15T10:03:49.157Z,24.30
2018-06-15T10:06:16.980Z,23.20
2018-06-15T10:08:44.740Z,23.00
2018-06-15T10:11:12.476Z,22.30
2018-06-15T10:13:40.228Z,23.40
2018-06-15T10:16:07.951Z,25.40
2018-06-15T10:18:35.676Z,26.40
2018-06-15T10:21:03.369Z,26.70
2018-06-15T10:23:31.096Z,26.20
2018-06-15T10:25:58.807Z,26.00
2018-06-15T10:28:26.547Z,26.70
2018-06-15T10:30:54.277Z,28.90
2018-06-15T10:33:22.021Z,30.00
2018-06-15T10:35:49.749Z,28.40
2018-06-15T10:38:17.493Z,27.30
2018-06-15T10:40:45.286Z,28.10
2018-06-15T10:43:13.013Z,27.10
2018-06-15T10:45:40.826Z,26.30
2018-06-15T10:48:08.772Z,26.00
2018-06-15T10:50:36.499Z,26.00
2018-06-15T10:53:04.296Z,25.90
2018-06-15T10:55:32.011Z,25.30
2018-06-15T10:57:59.732Z,25.20
2018-06-15T11:00:27.441Z,25.60
2018-06-15T11:02:55.151Z,26.30
2018-06-15T11:05:23.118Z,26.80
2018-06-15T11:07:50.848Z,26.90
2018-06-15T11:10:18.598Z,28.90
2018-06-15T11:12:46.336Z,29.00
2018-06-15T11:15:14.055Z,28.80
2018-06-15T11:17:41.743Z,30.30
2018-06-15T11:20:09.456Z,29.30
2018-06-15T11:22:37.184Z,29.60
2018-06-15T11:25:04.959Z,30.70
2018-06-15T11:27:32.686Z,29.00
2018-06-15T11:30:00.450Z,28.30
2018-06-15T11:32:28.193Z,27.80
2018-06-15T11:34:56.034Z,29.00
2018-06-15T11:37:23.782Z,28.90
2018-06-15T11:39:51.520Z,30.00
2018-06-15T11:42:19.264Z,27.70
2018-06-15T11:44:47.016Z,27.30
2018-06-15T11:47:14.744Z,29.20
2018-06-15T11:49:42.538Z,31.10
2018-06-15T11:52:10.280Z,30.80
2018-06-15T11:54:41.021Z,29.10
2018-06-15T11:57:09.102Z,27.20
2018-06-15T11:59:37.229Z,26.10
2018-06-15T12:02:05.116Z,25.90
2018-06-15T12:04:32.860Z,25.50
2018-06-15T12:07:00.626Z,27.20
2018-06-15T12:09:28.372Z,28.20
2018-06-15T12:11:56.168Z,27.50
2018-06-15T12:14:23.907Z,27.20
2018-06-15T12:16:51.648Z,26.70
2018-06-15T12:19:19.450Z,25.60
2018-06-15T12:21:47.174Z,25.10
2018-06-15T12:26:42.532Z,27.10
2018-06-15T12:29:10.269Z,28.10
2018-06-15T12:31:38.002Z,29.80
2018-06-15T12:34:06.695Z,31.10
2018-06-15T12:36:34.485Z,29.30
2018-06-15T12:41:30.014Z,27.10
2018-06-15T12:49:06.619Z,25.30
2018-06-15T12:54:01.964Z,25.80
2018-06-15T12:56:29.710Z,26.20
2018-06-15T13:01:25.164Z,26.10
2018-06-15T13:03:52.880Z,26.30
2018-06-15T13:06:20.626Z,27.00
2018-06-15T13:08:48.355Z,26.70
2018-06-15T13:11:16.123Z,26.10
2018-06-15T13:13:43.927Z,25.10
2018-06-15T13:16:11.639Z,24.80
2018-06-15T13:18:39.464Z,26.20
2018-06-15T13:21:07.233Z,27.70
2018-06-15T13:23:35.491Z,27.80
2018-06-15T13:26:03.239Z,27.50
2018-06-15T13:28:30.964Z,26.90
2018-06-15T13:30:58.698Z,26.00
2018-06-15T13:33:26.412Z,26.00
2018-06-15T13:35:54.442Z,26.70
2018-06-15T13:38:22.168Z,26.70
2018-06-15T13:40:49.931Z,26.90
2018-06-15T13:43:18.532Z,27.60
2018-06-15T13:45:46.295Z,27.70
2018-06-15T13:48:14.031Z,28.20
2018-06-15T13:50:41.784Z,27.60
2018-06-15T13:53:09.500Z,27.40
2018-06-15T13:55:37.275Z,25.90
2018-06-15T14:00:32.651Z,26.00
2018-06-15T14:03:00.364Z,27.10
2018-06-15T14:05:28.148Z,27.30
2018-06-15T14:10:23.528Z,27.60
2018-06-15T14:12:51.590Z,27.40
2018-06-15T14:15:19.334Z,26.20
2018-06-15T14:17:47.149Z,25.70
2018-06-15T14:20:14.884Z,26.00
2018-06-15T14:22:42.598Z,25.90
2018-06-15T14:25:10.423Z,26.20
2018-06-15T14:27:38.105Z,25.70
2018-06-15T14:30:06.039Z,26.40
2018-06-15T14:32:33.789Z,27.00
2018-06-15T14:35:01.631Z,26.60
2018-06-15T14:37:29.397Z,26.90
2018-06-15T14:39:57.199Z,26.70
2018-06-15T14:42:25.053Z,26.30
2018-06-15T14:44:52.758Z,26.90
2018-06-15T14:47:20.584Z,27.70
2018-06-15T14:49:48.335Z,27.40
2018-06-15T14:52:16.119Z,26.10
2018-06-15T14:54:43.853Z,25.90
2018-06-15T14:57:11.624Z,26.40
2018-06-15T14:59:39.361Z,25.90
2018-06-15T15:02:08.171Z,26.40
2018-06-15T15:04:36.022Z,26.60
2018-06-15T15:07:03.827Z,27.20
2018-06-15T15:09:31.756Z,26.70
2018-06-15T15:11:59.536Z,27.20
2018-06-15T15:16:56.634Z,26.80
2018-06-15T15:19:24.507Z,26.60
2018-06-15T15:21:52.361Z,25.80
2018-06-15T15:24:20.098Z,25.80
2018-06-15T15:29:15.494Z,25.70
2018-06-15T15:31:43.197Z,25.50
2018-06-15T15:34:10.928Z,25.60
2018-06-15T15:36:38.686Z,25.70
2018-06-15T15:39:08.782Z,25.60
2018-06-15T15:41:36.591Z,25.20
2018-06-15T15:44:04.392Z,25.20
2018-06-15T15:46:32.134Z,25.40
2018-06-15T15:51:27.711Z,25.40
2018-06-15T15:53:55.455Z,25.40
2018-06-15T15:56:23.199Z,25.20
2018-06-15T15:58:50.961Z,24.70
2018-06-15T16:03:46.435Z,25.00
2018-06-15T16:06:14.173Z,24.90
2018-06-15T16:08:41.886Z,25.30
2018-06-15T16:11:09.684Z,25.30
2018-06-15T16:13:37.449Z,25.30
2018-06-15T16:16:05.763Z,25.00
2018-06-15T16:18:33.463Z,25.40
2018-06-15T16:21:01.175Z,25.20
2018-06-15T16:23:28.917Z,24.90
2018-06-15T16:25:56.727Z,25.50
2018-06-15T16:28:24.471Z,25.40
2018-06-15T16:30:52.219Z,25.60
2018-06-15T16:33:20.081Z,25.50
2018-06-15T16:38:15.647Z,25.50
2018-06-15T16:40:43.456Z,25.80
2018-06-15T16:43:11.215Z,26.00
2018-06-15T16:45:38.947Z,26.40
2018-06-15T16:48:06.684Z,26.30
2018-06-15T16:50:34.427Z,26.00
2018-06-15T16:55:30.164Z,26.30
2018-06-15T16:57:57.914Z,25.70
2018-06-15T17:02:53.675Z,25.40
2018-06-15T17:05:21.394Z,25.50
2018-06-15T17:07:49.146Z,25.50
2018-06-15T17:10:17.171Z,24.80
2018-06-15T17:12:44.867Z,24.90
2018-06-15T17:15:12.689Z,24.80
2018-06-15T17:20:08.183Z,24.60
2018-06-15T17:22:35.880Z,24.80
2018-06-15T17:27:31.679Z,24.70
2018-06-15T17:29:59.465Z,24.80
2018-06-15T17:32:27.173Z,24.70
2018-06-15T17:34:54.967Z,24.80
2018-06-15T17:37:22.698Z,24.80
2018-06-15T17:39:50.460Z,24.60
2018-06-15T17:42:18.182Z,24.30
2018-06-15T17:44:45.928Z,24.60
2018-06-15T17:47:13.681Z,24.50
2018-06-15T17:49:41.407Z,24.60
2018-06-15T17:52:09.128Z,24.40
2018-06-15T17:54:36.864Z,24.60
2018-06-15T17:57:04.928Z,24.50
2018-06-15T17:59:32.660Z,24.50
2018-06-15T18:02:00.444Z,24.30
2018-06-15T18:04:28.167Z,24.10
2018-06-15T18:06:55.964Z,24.60
2018-06-15T18:09:23.728Z,24.70
2018-06-15T18:11:51.446Z,24.70
2018-06-15T18:14:19.214Z,24.60
2018-06-15T18:16:46.931Z,24.50
2018-06-15T18:19:14.700Z,24.70
2018-06-15T18:21:42.427Z,24.60
2018-06-15T18:24:10.204Z,24.20
2018-06-15T18:29:05.571Z,23.80
2018-06-15T18:31:33.290Z,23.90
2018-06-15T18:36:28.676Z,23.30
2018-06-15T18:38:56.447Z,23.50
2018-06-15T18:41:24.163Z,23.50
2018-06-15T18:43:52.012Z,23.20
2018-06-15T18:46:19.758Z,23.20
2018-06-15T18:51:15.104Z,23.10
2018-06-15T18:56:10.548Z,23.20
2018-06-15T18:58:38.295Z,23.10
2018-06-15T19:01:06.044Z,23.30
2018-06-15T19:03:33.789Z,23.30
2018-06-15T19:06:02.222Z,23.20
2018-06-15T19:08:29.967Z,23.10
2018-06-15T19:10:57.779Z,23.10
2018-06-15T19:13:25.515Z,23.30
2018-06-15T19:15:53.263Z,23.40
2018-06-15T19:18:21.024Z,23.20
2018-06-15T19:20:48.788Z,23.20
2018-06-15T19:23:16.670Z,22.60
2018-06-15T19:25:44.463Z,22.80
2018-06-15T19:28:12.188Z,23.10
2018-06-15T19:33:07.697Z,23.00
2018-06-15T19:38:03.060Z,23.00
2018-06-15T19:40:30.807Z,22.70
2018-06-15T19:42:58.573Z,22.60
2018-06-15T19:45:26.436Z,22.50
2018-06-15T19:47:54.170Z,22.60
2018-06-15T19:50:21.866Z,22.60
2018-06-15T19:52:49.679Z,22.70
2018-06-15T19:55:17.404Z,22.40
2018-06-15T19:57:45.324Z,22.50
2018-06-15T20:00:13.205Z,22.40
2018-06-15T20:02:40.955Z,22.30
2018-06-15T20:05:09.340Z,22.10
2018-06-15T20:07:37.184Z,22.40
2018-06-15T20:10:04.988Z,22.30
2018-06-15T20:12:32.686Z,22.30
2018-06-15T20:15:00.443Z,22.10
2018-06-15T20:17:28.208Z,21.80
2018-06-15T20:19:55.935Z,21.90
2018-06-15T20:22:23.627Z,21.70
2018-06-15T20:24:51.359Z,21.70
2018-06-15T20:27:19.055Z,21.90
2018-06-15T20:29:46.807Z,21.80
2018-06-15T20:34:42.109Z,21.30
2018-06-15T20:37:10.044Z,21.10
2018-06-15T20:39:37.781Z,21.00
2018-06-15T20:42:05.587Z,21.00
2018-06-15T20:44:33.320Z,21.20
2018-06-15T20:47:01.076Z,20.80
2018-06-15T20:49:28.831Z,20.60
2018-06-15T20:51:56.715Z,20.70
2018-06-15T20:54:24.461Z,20.40
2018-06-15T20:56:52.155Z,20.70
2018-06-15T20:59:19.865Z,20.30
2018-06-15T21:01:47.560Z,20.50
2018-06-15T21:04:15.288Z,20.30
2018-06-15T21:06:42.980Z,20.20
2018-06-15T21:11:38.415Z,20.20
2018-06-15T21:14:06.283Z,19.70
2018-06-15T21:16:34.031Z,19.90
2018-06-15T21:19:01.792Z,19.90
2018-06-15T21:21:29.523Z,19.60
2018-06-15T21:23:57.282Z,19.70
2018-06-15T21:26:25.056Z,19.90
2018-06-15T21:28:52.966Z,19.80
2018-06-15T21:31:20.705Z,19.90
2018-06-15T21:33:48.445Z,20.20
2018-06-15T21:36:16.183Z,19.80
2018-06-15T21:38:43.944Z,19.90
2018-06-15T21:41:12.302Z,19.80
2018-06-15T21:43:40.038Z,19.80
2018-06-15T21:46:07.825Z,19.50
2018-06-15T21:48:35.612Z,19.60
2018-06-15T21:51:03.360Z,19.80
2018-06-15T21:53:31.085Z,19.50
2018-06-15T21:55:58.788Z,19.90
2018-06-15T21:58:26.522Z,19.40
2018-06-15T22:00:54.252Z,19.80
2018-06-15T22:03:21.989Z,19.70
2018-06-15T22:05:49.725Z,19.70
2018-06-15T22:10:45.088Z,19.60
2018-06-15T22:13:12.860Z,19.30
2018-06-15T22:15:40.617Z,19.70
2018-06-15T22:18:08.405Z,19.70
2018-06-15T22:20:36.132Z,19.50
2018-06-15T22:23:03.886Z,19.80
2018-06-15T22:25:31.620Z,20.00
2018-06-15T22:27:59.663Z,19.70
2018-06-15T22:30:27.458Z,19.80
2018-06-15T22:32:55.216Z,19.80
2018-06-15T22:35:22.905Z,19.70
2018-06-15T22:40:19.220Z,19.70
2018-06-15T22:42:46.901Z,19.80
2018-06-15T22:45:14.963Z,19.80
2018-06-15T22:47:42.708Z,19.60
2018-06-15T22:50:10.471Z,19.70
2018-06-15T22:52:38.184Z,20.00
2018-06-15T22:55:05.919Z,19.80
2018-06-15T22:57:33.644Z,20.00
2018-06-15T23:00:01.725Z,20.00
2018-06-15T23:02:29.456Z,19.80
2018-06-15T23:04:57.193Z,20.30
2018-06-15T23:07:24.951Z,20.20
2018-06-15T23:09:52.705Z,19.70
2018-06-15T23:12:20.416Z,20.10
2018-06-15T23:14:48.148Z,20.00
2018-06-15T23:17:15.860Z,19.70
2018-06-15T23:19:43.606Z,19.80
2018-06-15T23:22:11.327Z,19.90
2018-06-15T23:24:39.048Z,19.90
2018-06-15T23:27:06.756Z,19.60
2018-06-15T23:29:34.549Z,19.30
2018-06-15T23:34:29.890Z,19.30
2018-06-15T23:36:57.636Z,19.00
2018-06-15T23:41:52.949Z,19.10
2018-06-15T23:44:20.673Z,18.90
2018-06-15T23:46:48.400Z,19.00
2018-06-15T23:51:43.715Z,18.90
2018-06-15T23:54:11.464Z,18.90
2018-06-15T23:59:06.826Z,19.00
